EST,Max TemperatureF,Mean TemperatureF,Min TemperatureF,Max Dew PointF,MeanDew PointF,Min DewpointF,Max Humidity, Mean Humidity, Min Humidity, Max Sea Level PressureIn, Mean Sea Level PressureIn, Min Sea Level PressureIn, Max VisibilityMiles, Mean VisibilityMiles, Min VisibilityMiles, Max Wind SpeedMPH, Mean Wind SpeedMPH, Max Gust SpeedMPH,PrecipitationIn, CloudCover, Events, WindDirDegrees
2012-11-1,52,50,47,50,46,43,96,84,71,29.58,29.53,29.49,10,9,4,8,2,12,T,7,Rain,136
2012-11-2,50,47,44,45,43,37,93,85,76,29.57,29.52,29.48,10,8,2,9,2,14,T,8,Rain,246
2012-11-3,49,44,39,39,37,34,85,76,66,29.68,29.61,29.56,10,10,10,16,8,24,0.00,7,,300
2012-11-4,45,41,36,38,32,28,76,69,62,29.91,29.79,29.68,10,10,10,20,10,26,0.00,8,,300
2012-11-5,36,34,31,28,23,15,78,63,47,30.06,29.98,29.93,10,6,1,13,4,17,0.01,8,Snow,323
2012-11-6,36,29,22,18,14,11,74,56,38,30.30,30.18,30.06,10,10,10,22,6,29,T,1,,289
2012-11-7,39,28,17,23,18,13,92,63,33,30.33,30.20,30.05,10,10,9,15,6,21,0.00,1,,32
2012-11-8,37,34,31,34,31,23,96,80,64,30.05,29.89,29.78,10,5,1,17,11,25,0.45,8,Rain-Snow,6
2012-11-9,41,38,34,33,31,28,96,80,64,29.96,29.85,29.76,10,9,3,21,10,29,0.03,6,Snow,317
2012-11-10,41,36,30,28,19,12,64,49,33,30.48,30.24,29.98,10,10,10,23,9,32,0.00,2,,297
2012-11-11,39,31,23,34,25,19,88,71,54,30.56,30.48,30.43,10,10,10,6,1,9,T,6,,117
2012-11-12,58,48,38,52,43,37,100,81,61,30.45,30.37,30.19,10,4,0,14,4,23,0.00,6,Fog,158
2012-11-13,60,46,31,57,44,26,93,82,70,30.44,30.19,30.06,10,7,1,18,7,25,0.63,7,Rain,288
2012-11-14,41,34,26,26,23,20,92,69,45,30.60,30.56,30.46,10,10,7,16,5,21,0.00,0,,348
2012-11-15,40,32,24,26,23,20,88,71,54,30.57,30.48,30.36,10,10,10,12,4,15,0.00,3,,27
2012-11-16,36,31,25,27,25,23,92,78,64,30.44,30.35,30.30,10,10,7,8,3,12,0.00,4,,322
2012-11-17,38,29,20,27,20,15,85,63,40,30.71,30.61,30.44,10,9,2,10,2,14,0.00,2,,345
2012-11-18,42,30,17,23,18,15,91,63,34,30.78,30.73,30.68,10,8,2,9,1,14,0.00,0,,49
2012-11-19,47,33,19,26,18,11,92,59,25,30.67,30.49,30.30,10,8,5,7,0,12,0.00,0,,-1
2012-11-20,49,34,19,27,22,16,92,66,39,30.28,30.24,30.18,10,8,4,8,1,10,0.00,0,,339
2012-11-21,43,34,24,34,28,21,100,85,70,30.36,30.30,30.26,10,5,1,7,0,10,0.00,4,,55
2012-11-22,46,34,22,36,28,21,100,83,65,30.27,30.21,30.08,10,5,0,7,1,12,0.00,2,Fog,120
2012-11-23,45,40,35,41,37,34,100,92,83,30.06,29.91,29.65,10,6,1,12,3,20,0.00,7,,160
2012-11-24,45,38,31,43,34,18,96,80,63,29.64,29.47,29.37,10,9,3,20,7,31,0.03,8,Rain,278
2012-11-25,31,28,25,18,14,12,63,57,50,29.67,29.50,29.37,10,10,5,26,14,43,T,7,Snow,281
2012-11-26,32,27,22,12,11,9,65,52,39,30.20,29.93,29.68,10,10,10,17,10,30,0.00,0,,286
2012-11-27,31,22,12,15,12,9,92,70,47,30.35,30.31,30.21,10,8,2,13,1,18,0.00,2,,157
2012-11-28,31,20,8,17,13,5,92,71,49,30.33,30.22,30.08,10,9,5,6,1,9,0.00,2,,71
2012-11-29,29,24,18,21,14,6,92,66,39,30.21,30.08,30.03,10,8,2,20,6,24,T,6,Snow,295
2012-11-30,23,16,9,5,2,-2,67,54,41,30.63,30.46,30.23,10,10,10,21,8,28,0.00,0,,296